sensor_id;sensor_type;location;lat;lon;timestamp;temperature;humidity
68177;DHT22;56478;50.982;7.032;2022-07-24T00:02:18;19.96;68.45
68177;DHT22;56478;50.982;7.032;2022-07-24T00:04:45;20.00;69.20
68177;DHT22;56478;50.982;7.032;2022-07-24T00:07:10;19.98;68.86
68177;DHT22;56478;50.982;7.032;2022-07-24T00:09:36;19.96;68.37
68177;DHT22;56478;50.982;7.032;2022-07-24T00:12:01;19.97;68.16
68177;DHT22;56478;50.982;7.032;2022-07-24T00:14:27;19.92;69.67
68177;DHT22;56478;50.982;7.032;2022-07-24T00:16:54;19.93;69.09
68177;DHT22;56478;50.982;7.032;2022-07-24T00:19:20;19.90;69.32
68177;DHT22;56478;50.982;7.032;2022-07-24T00:21:46;19.85;69.56
68177;DHT22;56478;50.982;7.032;2022-07-24T00:24:11;19.83;69.40
68177;DHT22;56478;50.982;7.032;2022-07-24T00:26:38;19.79;69.90
68177;DHT22;56478;50.982;7.032;2022-07-24T00:29:04;19.79;70.03
68177;DHT22;56478;50.982;7.032;2022-07-24T00:31:29;19.72;70.15
68177;DHT22;56478;50.982;7.032;2022-07-24T00:33:55;19.70;70.55
68177;DHT22;56478;50.982;7.032;2022-07-24T00:36:21;19.63;70.78
68177;DHT22;56478;50.982;7.032;2022-07-24T00:38:46;19.59;71.17
68177;DHT22;56478;50.982;7.032;2022-07-24T00:41:12;19.54;71.19
68177;DHT22;56478;50.982;7.032;2022-07-24T00:46:21;19.52;70.94
68177;DHT22;56478;50.982;7.032;2022-07-24T00:48:46;19.54;71.16
68177;DHT22;56478;50.982;7.032;2022-07-24T00:51:12;19.49;71.02
68177;DHT22;56478;50.982;7.032;2022-07-24T00:53:40;19.47;70.83
68177;DHT22;56478;50.982;7.032;2022-07-24T00:56:05;19.48;70.46
68177;DHT22;56478;50.982;7.032;2022-07-24T00:58:31;19.44;70.60
68177;DHT22;56478;50.982;7.032;2022-07-24T01:00:58;19.42;71.59
68177;DHT22;56478;50.982;7.032;2022-07-24T01:03:23;19.44;70.92
68177;DHT22;56478;50.982;7.032;2022-07-24T01:05:49;19.36;71.11
68177;DHT22;56478;50.982;7.032;2022-07-24T01:08:15;19.38;71.05
68177;DHT22;56478;50.982;7.032;2022-07-24T01:10:40;19.36;71.67
68177;DHT22;56478;50.982;7.032;2022-07-24T01:13:06;19.28;71.07
68177;DHT22;56478;50.982;7.032;2022-07-24T01:15:32;19.31;71.09
68177;DHT22;56478;50.982;7.032;2022-07-24T01:17:57;19.34;71.46
68177;DHT22;56478;50.982;7.032;2022-07-24T01:20:23;19.31;70.83
68177;DHT22;56478;50.982;7.032;2022-07-24T01:22:48;19.36;70.93
68177;DHT22;56478;50.982;7.032;2022-07-24T01:25:14;19.31;71.58
68177;DHT22;56478;50.982;7.032;2022-07-24T01:27:40;19.30;71.74
68177;DHT22;56478;50.982;7.032;2022-07-24T01:30:05;19.20;72.05
68177;DHT22;56478;50.982;7.032;2022-07-24T01:32:31;19.21;71.90
68177;DHT22;56478;50.982;7.032;2022-07-24T01:34:57;19.15;71.85
68177;DHT22;56478;50.982;7.032;2022-07-24T01:37:23;19.14;72.23
68177;DHT22;56478;50.982;7.032;2022-07-24T01:39:48;19.08;71.74
68177;DHT22;56478;50.982;7.032;2022-07-24T01:42:14;19.07;71.80
68177;DHT22;56478;50.982;7.032;2022-07-24T01:44:39;19.10;71.89
68177;DHT22;56478;50.982;7.032;2022-07-24T01:47:05;19.08;71.69
68177;DHT22;56478;50.982;7.032;2022-07-24T01:49:30;19.03;72.22
68177;DHT22;56478;50.982;7.032;2022-07-24T01:51:56;18.95;71.71
68177;DHT22;56478;50.982;7.032;2022-07-24T01:54:22;19.00;72.18
68177;DHT22;56478;50.982;7.032;2022-07-24T01:56:47;18.95;71.95
68177;DHT22;56478;50.982;7.032;2022-07-24T01:59:13;18.99;71.67
68177;DHT22;56478;50.982;7.032;2022-07-24T02:01:39;18.93;71.83
68177;DHT22;56478;50.982;7.032;2022-07-24T02:04:04;18.93;71.83
68177;DHT22;56478;50.982;7.032;2022-07-24T02:06:31;18.90;72.52
68177;DHT22;56478;50.982;7.032;2022-07-24T02:08:56;18.82;72.02
68177;DHT22;56478;50.982;7.032;2022-07-24T02:11:22;18.85;72.84
68177;DHT22;56478;50.982;7.032;2022-07-24T02:13:47;18.79;73.19
68177;DHT22;56478;50.982;7.032;2022-07-24T02:16:13;18.75;73.35
68177;DHT22;56478;50.982;7.032;2022-07-24T02:18:39;18.76;73.26
68177;DHT22;56478;50.982;7.032;2022-07-24T02:21:04;18.75;73.17
68177;DHT22;56478;50.982;7.032;2022-07-24T02:23:30;18.77;72.80
68177;DHT22;56478;50.982;7.032;2022-07-24T02:25:55;18.69;73.24
68177;DHT22;56478;50.982;7.032;2022-07-24T02:28:21;18.72;73.19
68177;DHT22;56478;50.982;7.032;2022-07-24T02:30:46;18.73;72.29
68177;DHT22;56478;50.982;7.032;2022-07-24T02:33:12;18.72;72.25
68177;DHT22;56478;50.982;7.032;2022-07-24T02:35:38;18.73;72.58
68177;DHT22;56478;50.982;7.032;2022-07-24T02:38:05;18.66;72.68
68177;DHT22;56478;50.982;7.032;2022-07-24T02:40:31;18.63;72.20
68177;DHT22;56478;50.982;7.032;2022-07-24T02:42:56;18.66;72.51
68177;DHT22;56478;50.982;7.032;2022-07-24T02:45:22;18.61;72.58
68177;DHT22;56478;50.982;7.032;2022-07-24T02:47:54;18.61;72.25
68177;DHT22;56478;50.982;7.032;2022-07-24T02:50:21;18.52;72.12
68177;DHT22;56478;50.982;7.032;2022-07-24T02:52:47;18.47;71.95
68177;DHT22;56478;50.982;7.032;2022-07-24T02:55:13;18.47;72.40
68177;DHT22;56478;50.982;7.032;2022-07-24T02:57:39;18.44;72.79
68177;DHT22;56478;50.982;7.032;2022-07-24T03:00:07;18.45;72.40
68177;DHT22;56478;50.982;7.032;2022-07-24T03:02:34;18.44;72.89
68177;DHT22;56478;50.982;7.032;2022-07-24T03:05:00;18.43;72.37
68177;DHT22;56478;50.982;7.032;2022-07-24T03:07:26;18.41;72.69
68177;DHT22;56478;50.982;7.032;2022-07-24T03:09:51;18.40;72.48
68177;DHT22;56478;50.982;7.032;2022-07-24T03:12:17;18.35;72.93
68177;DHT22;56478;50.982;7.032;2022-07-24T03:14:42;18.35;72.67
68177;DHT22;56478;50.982;7.032;2022-07-24T03:17:08;18.35;72.62
68177;DHT22;56478;50.982;7.032;2022-07-24T03:19:33;18.33;72.74
68177;DHT22;56478;50.982;7.032;2022-07-24T03:21:59;18.30;72.89
68177;DHT22;56478;50.982;7.032;2022-07-24T03:24:25;18.27;72.98
68177;DHT22;56478;50.982;7.032;2022-07-24T03:26:50;18.27;72.66
68177;DHT22;56478;50.982;7.032;2022-07-24T03:29:16;18.23;72.39
68177;DHT22;56478;50.982;7.032;2022-07-24T03:31:41;18.23;72.62
68177;DHT22;56478;50.982;7.032;2022-07-24T03:34:07;18.20;72.36
68177;DHT22;56478;50.982;7.032;2022-07-24T03:36:33;18.17;72.79
68177;DHT22;56478;50.982;7.032;2022-07-24T03:38:59;18.17;73.03
68177;DHT22;56478;50.982;7.032;2022-07-24T03:41:24;18.16;72.63
68177;DHT22;56478;50.982;7.032;2022-07-24T03:43:49;18.13;72.29
68177;DHT22;56478;50.982;7.032;2022-07-24T03:46:15;18.13;72.84
68177;DHT22;56478;50.982;7.032;2022-07-24T03:48:41;18.07;72.53
68177;DHT22;56478;50.982;7.032;2022-07-24T03:51:06;18.06;72.16
68177;DHT22;56478;50.982;7.032;2022-07-24T03:53:32;18.10;72.97
68177;DHT22;56478;50.982;7.032;2022-07-24T03:55:57;18.10;72.92
68177;DHT22;56478;50.982;7.032;2022-07-24T03:58:23;18.06;72.24
68177;DHT22;56478;50.982;7.032;2022-07-24T04:00:48;18.13;72.24
68177;DHT22;56478;50.982;7.032;2022-07-24T04:03:14;18.11;72.57
68177;DHT22;56478;50.982;7.032;2022-07-24T04:05:39;18.14;72.52
68177;DHT22;56478;50.982;7.032;2022-07-24T04:08:05;18.14;72.51
68177;DHT22;56478;50.982;7.032;2022-07-24T04:10:30;18.18;72.40
68177;DHT22;56478;50.982;7.032;2022-07-24T04:12:56;18.21;72.18
68177;DHT22;56478;50.982;7.032;2022-07-24T04:15:22;18.24;72.64
68177;DHT22;56478;50.982;7.032;2022-07-24T04:17:47;18.27;72.14
68177;DHT22;56478;50.982;7.032;2022-07-24T04:20:13;18.28;71.73
68177;DHT22;56478;50.982;7.032;2022-07-24T04:22:38;18.31;71.94
68177;DHT22;56478;50.982;7.032;2022-07-24T04:25:04;18.33;71.80
68177;DHT22;56478;50.982;7.032;2022-07-24T04:27:30;18.47;71.79
68177;DHT22;56478;50.982;7.032;2022-07-24T04:29:56;18.41;72.31
68177;DHT22;56478;50.982;7.032;2022-07-24T04:32:23;18.41;71.90
68177;DHT22;56478;50.982;7.032;2022-07-24T04:34:49;18.40;71.34
68177;DHT22;56478;50.982;7.032;2022-07-24T04:37:14;18.51;71.42
68177;DHT22;56478;50.982;7.032;2022-07-24T04:39:40;18.55;71.30
68177;DHT22;56478;50.982;7.032;2022-07-24T04:42:06;18.61;71.72
68177;DHT22;56478;50.982;7.032;2022-07-24T04:44:31;18.62;71.00
68177;DHT22;56478;50.982;7.032;2022-07-24T04:46:57;18.65;71.30
68177;DHT22;56478;50.982;7.032;2022-07-24T04:49:22;18.69;70.88
68177;DHT22;56478;50.982;7.032;2022-07-24T04:51:48;18.72;70.26
68177;DHT22;56478;50.982;7.032;2022-07-24T04:54:13;18.79;70.75
68177;DHT22;56478;50.982;7.032;2022-07-24T04:56:39;18.79;70.66
68177;DHT22;56478;50.982;7.032;2022-07-24T04:59:04;18.89;70.34
68177;DHT22;56478;50.982;7.032;2022-07-24T05:01:30;18.90;70.24
68177;DHT22;56478;50.982;7.032;2022-07-24T05:03:55;18.95;70.09
68177;DHT22;56478;50.982;7.032;2022-07-24T05:06:22;18.96;69.22
68177;DHT22;56478;50.982;7.032;2022-07-24T05:08:47;19.02;69.73
68177;DHT22;56478;50.982;7.032;2022-07-24T05:11:13;19.07;69.34
68177;DHT22;56478;50.982;7.032;2022-07-24T05:13:38;19.11;70.09
68177;DHT22;56478;50.982;7.032;2022-07-24T05:16:04;19.17;68.44
68177;DHT22;56478;50.982;7.032;2022-07-24T05:18:30;19.23;67.88
68177;DHT22;56478;50.982;7.032;2022-07-24T05:20:55;19.24;67.77
68177;DHT22;56478;50.982;7.032;2022-07-24T05:23:21;19.31;68.01
68177;DHT22;56478;50.982;7.032;2022-07-24T05:25:46;19.28;68.07
68177;DHT22;56478;50.982;7.032;2022-07-24T05:28:12;19.39;68.06
68177;DHT22;56478;50.982;7.032;2022-07-24T05:30:37;19.54;67.12
68177;DHT22;56478;50.982;7.032;2022-07-24T05:33:03;19.70;67.04
68177;DHT22;56478;50.982;7.032;2022-07-24T05:35:29;19.80;67.72
68177;DHT22;56478;50.982;7.032;2022-07-24T05:37:59;19.83;67.19
68177;DHT22;56478;50.982;7.032;2022-07-24T05:40:25;19.93;68.51
68177;DHT22;56478;50.982;7.032;2022-07-24T05:42:50;20.01;66.11
68177;DHT22;56478;50.982;7.032;2022-07-24T05:45:16;20.16;65.60
68177;DHT22;56478;50.982;7.032;2022-07-24T05:47:41;20.24;64.78
68177;DHT22;56478;50.982;7.032;2022-07-24T05:50:08;20.31;66.64
68177;DHT22;56478;50.982;7.032;2022-07-24T05:52:33;20.42;66.58
68177;DHT22;56478;50.982;7.032;2022-07-24T05:54:59;20.48;68.39
68177;DHT22;56478;50.982;7.032;2022-07-24T05:57:25;20.62;66.60
68177;DHT22;56478;50.982;7.032;2022-07-24T05:59:50;20.69;66.94
68177;DHT22;56478;50.982;7.032;2022-07-24T06:02:16;20.82;66.09
68177;DHT22;56478;50.982;7.032;2022-07-24T06:04:41;20.98;63.75
68177;DHT22;56478;50.982;7.032;2022-07-24T06:07:11;21.10;63.11
68177;DHT22;56478;50.982;7.032;2022-07-24T06:09:37;21.06;63.65
68177;DHT22;56478;50.982;7.032;2022-07-24T06:12:03;21.11;63.00
68177;DHT22;56478;50.982;7.032;2022-07-24T06:14:29;21.08;66.40
68177;DHT22;56478;50.982;7.032;2022-07-24T06:16:54;21.17;63.02
68177;DHT22;56478;50.982;7.032;2022-07-24T06:19:20;21.14;62.85
68177;DHT22;56478;50.982;7.032;2022-07-24T06:21:45;21.23;63.15
68177;DHT22;56478;50.982;7.032;2022-07-24T06:24:11;21.46;61.10
68177;DHT22;56478;50.982;7.032;2022-07-24T06:26:36;21.59;62.65
68177;DHT22;56478;50.982;7.032;2022-07-24T06:29:02;21.66;62.39
68177;DHT22;56478;50.982;7.032;2022-07-24T06:31:28;21.92;59.76
68177;DHT22;56478;50.982;7.032;2022-07-24T06:33:53;22.10;59.42
68177;DHT22;56478;50.982;7.032;2022-07-24T06:36:19;22.10;59.48
68177;DHT22;56478;50.982;7.032;2022-07-24T06:38:45;22.11;59.02
68177;DHT22;56478;50.982;7.032;2022-07-24T06:41:10;22.24;59.94
68177;DHT22;56478;50.982;7.032;2022-07-24T06:43:35;22.27;59.54
68177;DHT22;56478;50.982;7.032;2022-07-24T06:46:01;22.27;57.81
68177;DHT22;56478;50.982;7.032;2022-07-24T06:48:26;22.14;59.57
68177;DHT22;56478;50.982;7.032;2022-07-24T06:50:52;22.34;57.99
68177;DHT22;56478;50.982;7.032;2022-07-24T06:53:18;22.52;56.93
68177;DHT22;56478;50.982;7.032;2022-07-24T06:55:43;23.19;55.38
68177;DHT22;56478;50.982;7.032;2022-07-24T06:58:09;25.58;49.37
68177;DHT22;56478;50.982;7.032;2022-07-24T07:00:34;28.12;44.77
68177;DHT22;56478;50.982;7.032;2022-07-24T07:03:00;30.36;39.56
68177;DHT22;56478;50.982;7.032;2022-07-24T07:05:25;32.68;34.46
68177;DHT22;56478;50.982;7.032;2022-07-24T07:07:51;34.13;31.26
68177;DHT22;56478;50.982;7.032;2022-07-24T07:10:16;33.36;33.52
68177;DHT22;56478;50.982;7.032;2022-07-24T07:12:42;34.81;30.93
68177;DHT22;56478;50.982;7.032;2022-07-24T07:15:08;34.79;30.91
68177;DHT22;56478;50.982;7.032;2022-07-24T07:17:36;35.45;32.63
68177;DHT22;56478;50.982;7.032;2022-07-24T07:20:01;35.53;30.36
68177;DHT22;56478;50.982;7.032;2022-07-24T07:22:27;36.92;28.26
68177;DHT22;56478;50.982;7.032;2022-07-24T07:24:53;36.79;28.23
68177;DHT22;56478;50.982;7.032;2022-07-24T07:27:18;37.94;26.82
68177;DHT22;56478;50.982;7.032;2022-07-24T07:29:44;37.97;26.95
68177;DHT22;56478;50.982;7.032;2022-07-24T07:32:09;39.73;24.80
68177;DHT22;56478;50.982;7.032;2022-07-24T07:34:35;39.26;26.88
68177;DHT22;56478;50.982;7.032;2022-07-24T07:37:00;39.25;25.95
68177;DHT22;56478;50.982;7.032;2022-07-24T07:39:26;38.46;28.49
68177;DHT22;56478;50.982;7.032;2022-07-24T07:41:51;37.80;28.59
68177;DHT22;56478;50.982;7.032;2022-07-24T07:44:17;37.87;27.04
68177;DHT22;56478;50.982;7.032;2022-07-24T07:46:43;38.96;25.61
68177;DHT22;56478;50.982;7.032;2022-07-24T07:49:08;40.76;23.47
68177;DHT22;56478;50.982;7.032;2022-07-24T07:51:34;39.50;27.58
68177;DHT22;56478;50.982;7.032;2022-07-24T07:53:59;38.59;28.24
68177;DHT22;56478;50.982;7.032;2022-07-24T07:56:25;38.60;26.88
68177;DHT22;56478;50.982;7.032;2022-07-24T07:58:51;38.84;27.71
68177;DHT22;56478;50.982;7.032;2022-07-24T08:01:16;38.70;28.09
68177;DHT22;56478;50.982;7.032;2022-07-24T08:03:42;38.25;26.90
68177;DHT22;56478;50.982;7.032;2022-07-24T08:06:07;40.18;24.64
68177;DHT22;56478;50.982;7.032;2022-07-24T08:08:33;40.64;23.56
68177;DHT22;56478;50.982;7.032;2022-07-24T08:10:58;41.70;22.95
68177;DHT22;56478;50.982;7.032;2022-07-24T08:13:24;41.59;23.81
68177;DHT22;56478;50.982;7.032;2022-07-24T08:15:50;42.80;20.89
68177;DHT22;56478;50.982;7.032;2022-07-24T08:18:15;43.37;20.53
68177;DHT22;56478;50.982;7.032;2022-07-24T08:20:41;42.32;22.32
68177;DHT22;56478;50.982;7.032;2022-07-24T08:23:09;43.13;20.94
68177;DHT22;56478;50.982;7.032;2022-07-24T08:25:34;42.24;22.10
68177;DHT22;56478;50.982;7.032;2022-07-24T08:28:00;41.68;22.18
68177;DHT22;56478;50.982;7.032;2022-07-24T08:30:26;40.62;23.28
68177;DHT22;56478;50.982;7.032;2022-07-24T08:32:52;41.18;24.98
68177;DHT22;56478;50.982;7.032;2022-07-24T08:35:17;41.24;23.53
68177;DHT22;56478;50.982;7.032;2022-07-24T08:37:43;41.63;23.15
68177;DHT22;56478;50.982;7.032;2022-07-24T08:40:10;41.45;25.16
68177;DHT22;56478;50.982;7.032;2022-07-24T08:42:35;41.63;24.35
68177;DHT22;56478;50.982;7.032;2022-07-24T08:45:02;41.98;22.61
68177;DHT22;56478;50.982;7.032;2022-07-24T08:47:27;42.16;22.62
68177;DHT22;56478;50.982;7.032;2022-07-24T08:49:54;41.52;23.04
68177;DHT22;56478;50.982;7.032;2022-07-24T08:52:23;41.60;23.75
68177;DHT22;56478;50.982;7.032;2022-07-24T08:54:49;42.07;22.97
68177;DHT22;56478;50.982;7.032;2022-07-24T08:57:14;42.74;21.85
68177;DHT22;56478;50.982;7.032;2022-07-24T08:59:40;42.50;23.02
68177;DHT22;56478;50.982;7.032;2022-07-24T09:02:06;42.52;25.45
68177;DHT22;56478;50.982;7.032;2022-07-24T09:04:44;43.18;22.27
68177;DHT22;56478;50.982;7.032;2022-07-24T09:07:11;43.01;23.59
68177;DHT22;56478;50.982;7.032;2022-07-24T09:09:38;42.34;22.09
68177;DHT22;56478;50.982;7.032;2022-07-24T09:12:05;42.18;23.83
68177;DHT22;56478;50.982;7.032;2022-07-24T09:14:31;42.91;21.04
68177;DHT22;56478;50.982;7.032;2022-07-24T09:17:07;43.43;21.48
68177;DHT22;56478;50.982;7.032;2022-07-24T09:19:52;44.89;20.85
68177;DHT22;56478;50.982;7.032;2022-07-24T09:22:40;42.94;22.27
68177;DHT22;56478;50.982;7.032;2022-07-24T09:27:41;43.21;20.88
68177;DHT22;56478;50.982;7.032;2022-07-24T09:30:07;43.48;22.15
68177;DHT22;56478;50.982;7.032;2022-07-24T09:32:33;43.38;22.35
68177;DHT22;56478;50.982;7.032;2022-07-24T09:34:59;43.35;21.17
68177;DHT22;56478;50.982;7.032;2022-07-24T09:37:25;43.08;21.07
68177;DHT22;56478;50.982;7.032;2022-07-24T09:39:52;44.92;20.34
68177;DHT22;56478;50.982;7.032;2022-07-24T09:42:17;44.86;19.76
68177;DHT22;56478;50.982;7.032;2022-07-24T09:44:44;44.52;21.47
68177;DHT22;56478;50.982;7.032;2022-07-24T09:47:10;44.76;21.11
68177;DHT22;56478;50.982;7.032;2022-07-24T09:49:36;44.31;20.64
68177;DHT22;56478;50.982;7.032;2022-07-24T09:54:38;43.96;20.78
68177;DHT22;56478;50.982;7.032;2022-07-24T09:59:49;43.90;20.49
68177;DHT22;56478;50.982;7.032;2022-07-24T10:02:16;45.22;20.47
68177;DHT22;56478;50.982;7.032;2022-07-24T10:04:42;44.68;20.05
68177;DHT22;56478;50.982;7.032;2022-07-24T10:07:12;44.73;21.38
68177;DHT22;56478;50.982;7.032;2022-07-24T10:09:42;45.85;19.07
68177;DHT22;56478;50.982;7.032;2022-07-24T10:12:13;45.35;21.89
68177;DHT22;56478;50.982;7.032;2022-07-24T10:14:39;43.91;22.29
68177;DHT22;56478;50.982;7.032;2022-07-24T10:17:06;46.82;17.70
68177;DHT22;56478;50.982;7.032;2022-07-24T10:19:41;45.41;19.40
68177;DHT22;56478;50.982;7.032;2022-07-24T10:22:11;44.04;22.25
68177;DHT22;56478;50.982;7.032;2022-07-24T10:27:22;45.15;19.81
68177;DHT22;56478;50.982;7.032;2022-07-24T10:29:48;44.69;19.61
68177;DHT22;56478;50.982;7.032;2022-07-24T10:32:15;43.89;19.82
68177;DHT22;56478;50.982;7.032;2022-07-24T10:34:50;45.04;19.26
68177;DHT22;56478;50.982;7.032;2022-07-24T10:39:58;44.23;20.22
68177;DHT22;56478;50.982;7.032;2022-07-24T10:42:27;44.73;20.77
68177;DHT22;56478;50.982;7.032;2022-07-24T10:47:37;43.89;20.57
68177;DHT22;56478;50.982;7.032;2022-07-24T10:50:02;44.25;19.74
68177;DHT22;56478;50.982;7.032;2022-07-24T10:52:30;44.69;19.76
68177;DHT22;56478;50.982;7.032;2022-07-24T10:58:03;43.24;22.18
68177;DHT22;56478;50.982;7.032;2022-07-24T11:00:31;44.36;19.94
68177;DHT22;56478;50.982;7.032;2022-07-24T11:03:07;43.66;20.28
68177;DHT22;56478;50.982;7.032;2022-07-24T11:05:37;42.46;23.13
68177;DHT22;56478;50.982;7.032;2022-07-24T11:18:42;38.70;24.92
68177;DHT22;56478;50.982;7.032;2022-07-24T11:21:31;37.81;27.35
68177;DHT22;56478;50.982;7.032;2022-07-24T11:29:31;37.65;26.62
68177;DHT22;56478;50.982;7.032;2022-07-24T11:32:00;36.79;26.47
68177;DHT22;56478;50.982;7.032;2022-07-24T11:34:27;37.35;25.87
68177;DHT22;56478;50.982;7.032;2022-07-24T11:36:54;36.91;26.14
68177;DHT22;56478;50.982;7.032;2022-07-24T11:39:25;36.29;27.77
68177;DHT22;56478;50.982;7.032;2022-07-24T11:41:52;35.84;28.45
68177;DHT22;56478;50.982;7.032;2022-07-24T11:44:22;35.42;29.67
68177;DHT22;56478;50.982;7.032;2022-07-24T11:46:48;35.54;29.01
68177;DHT22;56478;50.982;7.032;2022-07-24T11:49:13;35.56;31.17
68177;DHT22;56478;50.982;7.032;2022-07-24T11:51:44;35.70;32.29
68177;DHT22;56478;50.982;7.032;2022-07-24T11:54:11;35.53;30.17
68177;DHT22;56478;50.982;7.032;2022-07-24T11:56:37;35.87;33.28
68177;DHT22;56478;50.982;7.032;2022-07-24T11:59:02;36.06;29.17
68177;DHT22;56478;50.982;7.032;2022-07-24T12:01:28;36.01;28.04
68177;DHT22;56478;50.982;7.032;2022-07-24T12:03:56;35.66;28.04
68177;DHT22;56478;50.982;7.032;2022-07-24T12:06:22;35.18;29.48
68177;DHT22;56478;50.982;7.032;2022-07-24T12:08:48;35.24;29.74
68177;DHT22;56478;50.982;7.032;2022-07-24T12:11:20;35.18;28.93
68177;DHT22;56478;50.982;7.032;2022-07-24T12:13:47;35.15;34.08
68177;DHT22;56478;50.982;7.032;2022-07-24T12:16:14;35.28;28.08
68177;DHT22;56478;50.982;7.032;2022-07-24T12:18:39;34.74;29.28
68177;DHT22;56478;50.982;7.032;2022-07-24T12:21:05;34.84;33.96
68177;DHT22;56478;50.982;7.032;2022-07-24T12:23:31;34.84;32.36
68177;DHT22;56478;50.982;7.032;2022-07-24T12:25:57;35.26;33.58
68177;DHT22;56478;50.982;7.032;2022-07-24T12:28:24;35.38;29.82
68177;DHT22;56478;50.982;7.032;2022-07-24T12:30:51;35.31;30.86
68177;DHT22;56478;50.982;7.032;2022-07-24T12:33:21;35.26;30.33
68177;DHT22;56478;50.982;7.032;2022-07-24T12:40:50;35.33;32.83
68177;DHT22;56478;50.982;7.032;2022-07-24T12:43:16;34.83;28.66
68177;DHT22;56478;50.982;7.032;2022-07-24T12:45:41;34.49;30.04
68177;DHT22;56478;50.982;7.032;2022-07-24T12:48:08;34.43;30.69
68177;DHT22;56478;50.982;7.032;2022-07-24T12:50:34;34.49;32.29
68177;DHT22;56478;50.982;7.032;2022-07-24T12:53:04;34.64;31.42
68177;DHT22;56478;50.982;7.032;2022-07-24T12:55:29;34.59;29.69
68177;DHT22;56478;50.982;7.032;2022-07-24T12:58:02;34.32;32.33
68177;DHT22;56478;50.982;7.032;2022-07-24T13:00:28;34.13;31.38
68177;DHT22;56478;50.982;7.032;2022-07-24T13:02:54;34.32;34.44
68177;DHT22;56478;50.982;7.032;2022-07-24T13:05:36;34.50;33.68
68177;DHT22;56478;50.982;7.032;2022-07-24T13:08:02;34.83;31.80
68177;DHT22;56478;50.982;7.032;2022-07-24T13:10:27;34.94;30.17
68177;DHT22;56478;50.982;7.032;2022-07-24T13:12:53;34.92;30.74
68177;DHT22;56478;50.982;7.032;2022-07-24T13:15:18;34.68;30.54
68177;DHT22;56478;50.982;7.032;2022-07-24T13:17:44;34.67;31.84
68177;DHT22;56478;50.982;7.032;2022-07-24T13:20:10;34.55;33.55
68177;DHT22;56478;50.982;7.032;2022-07-24T13:22:36;34.66;33.94
68177;DHT22;56478;50.982;7.032;2022-07-24T13:25:01;34.70;30.56
68177;DHT22;56478;50.982;7.032;2022-07-24T13:27:27;34.76;32.83
68177;DHT22;56478;50.982;7.032;2022-07-24T13:29:52;34.36;30.82
68177;DHT22;56478;50.982;7.032;2022-07-24T13:32:18;34.59;30.19
68177;DHT22;56478;50.982;7.032;2022-07-24T13:34:44;34.22;32.26
68177;DHT22;56478;50.982;7.032;2022-07-24T13:37:09;34.25;30.87
68177;DHT22;56478;50.982;7.032;2022-07-24T13:39:35;34.11;29.36
68177;DHT22;56478;50.982;7.032;2022-07-24T13:42:05;33.80;32.97
68177;DHT22;56478;50.982;7.032;2022-07-24T13:44:30;33.87;31.83
68177;DHT22;56478;50.982;7.032;2022-07-24T13:46:56;33.93;30.42
68177;DHT22;56478;50.982;7.032;2022-07-24T13:49:22;33.82;29.83
68177;DHT22;56478;50.982;7.032;2022-07-24T13:51:48;33.63;30.04
68177;DHT22;56478;50.982;7.032;2022-07-24T13:54:14;33.18;30.56
68177;DHT22;56478;50.982;7.032;2022-07-24T13:56:39;33.30;30.87
68177;DHT22;56478;50.982;7.032;2022-07-24T13:59:05;33.33;30.68
68177;DHT22;56478;50.982;7.032;2022-07-24T14:01:30;33.43;31.00
68177;DHT22;56478;50.982;7.032;2022-07-24T14:03:56;33.46;30.28
68177;DHT22;56478;50.982;7.032;2022-07-24T14:06:21;33.45;31.00
68177;DHT22;56478;50.982;7.032;2022-07-24T14:08:47;33.53;32.32
68177;DHT22;56478;50.982;7.032;2022-07-24T14:11:12;33.52;31.59
68177;DHT22;56478;50.982;7.032;2022-07-24T14:13:38;33.39;30.65
68177;DHT22;56478;50.982;7.032;2022-07-24T14:16:05;33.41;30.41
68177;DHT22;56478;50.982;7.032;2022-07-24T14:18:31;33.18;30.18
68177;DHT22;56478;50.982;7.032;2022-07-24T14:20:56;33.04;31.09
68177;DHT22;56478;50.982;7.032;2022-07-24T14:23:22;33.04;31.07
68177;DHT22;56478;50.982;7.032;2022-07-24T14:25:48;33.09;30.41
68177;DHT22;56478;50.982;7.032;2022-07-24T14:28:14;33.00;31.02
68177;DHT22;56478;50.982;7.032;2022-07-24T14:30:40;32.75;31.31
68177;DHT22;56478;50.982;7.032;2022-07-24T14:33:05;32.81;30.91
68177;DHT22;56478;50.982;7.032;2022-07-24T14:35:31;32.83;30.83
68177;DHT22;56478;50.982;7.032;2022-07-24T14:37:57;32.73;31.09
68177;DHT22;56478;50.982;7.032;2022-07-24T14:40:23;32.88;32.27
68177;DHT22;56478;50.982;7.032;2022-07-24T14:42:49;33.00;33.05
68177;DHT22;56478;50.982;7.032;2022-07-24T14:45:15;33.08;32.18
68177;DHT22;56478;50.982;7.032;2022-07-24T14:47:40;33.07;32.15
68177;DHT22;56478;50.982;7.032;2022-07-24T14:50:06;33.07;34.58
68177;DHT22;56478;50.982;7.032;2022-07-24T14:52:32;33.15;33.68
68177;DHT22;56478;50.982;7.032;2022-07-24T14:54:58;33.09;31.63
68177;DHT22;56478;50.982;7.032;2022-07-24T14:57:24;33.22;30.67
68177;DHT22;56478;50.982;7.032;2022-07-24T14:59:50;33.36;31.45
68177;DHT22;56478;50.982;7.032;2022-07-24T15:02:15;33.41;30.09
68177;DHT22;56478;50.982;7.032;2022-07-24T15:04:41;33.27;31.21
68177;DHT22;56478;50.982;7.032;2022-07-24T15:07:07;33.01;30.19
68177;DHT22;56478;50.982;7.032;2022-07-24T15:09:33;33.04;30.92
68177;DHT22;56478;50.982;7.032;2022-07-24T15:11:58;32.90;31.30
68177;DHT22;56478;50.982;7.032;2022-07-24T15:14:24;33.00;31.71
68177;DHT22;56478;50.982;7.032;2022-07-24T15:16:50;33.04;32.90
68177;DHT22;56478;50.982;7.032;2022-07-24T15:19:15;33.14;31.82
68177;DHT22;56478;50.982;7.032;2022-07-24T15:21:41;33.26;30.82
68177;DHT22;56478;50.982;7.032;2022-07-24T15:24:06;33.27;31.24
68177;DHT22;56478;50.982;7.032;2022-07-24T15:26:32;33.09;32.96
68177;DHT22;56478;50.982;7.032;2022-07-24T15:28:58;32.95;31.97
68177;DHT22;56478;50.982;7.032;2022-07-24T15:31:24;33.01;32.69
68177;DHT22;56478;50.982;7.032;2022-07-24T15:33:49;32.91;33.38
68177;DHT22;56478;50.982;7.032;2022-07-24T15:36:15;32.71;31.55
68177;DHT22;56478;50.982;7.032;2022-07-24T15:38:40;32.94;30.73
68177;DHT22;56478;50.982;7.032;2022-07-24T15:41:06;32.77;32.17
68177;DHT22;56478;50.982;7.032;2022-07-24T15:43:32;32.64;31.23
68177;DHT22;56478;50.982;7.032;2022-07-24T15:45:58;32.78;30.88
68177;DHT22;56478;50.982;7.032;2022-07-24T15:48:23;32.40;30.67
68177;DHT22;56478;50.982;7.032;2022-07-24T15:50:49;32.28;30.87
68177;DHT22;56478;50.982;7.032;2022-07-24T15:53:15;32.40;31.60
68177;DHT22;56478;50.982;7.032;2022-07-24T15:55:41;32.46;31.45
68177;DHT22;56478;50.982;7.032;2022-07-24T15:58:07;32.49;31.48
68177;DHT22;56478;50.982;7.032;2022-07-24T16:00:33;32.44;33.04
68177;DHT22;56478;50.982;7.032;2022-07-24T16:02:59;32.32;34.10
68177;DHT22;56478;50.982;7.032;2022-07-24T16:05:24;32.37;31.76
68177;DHT22;56478;50.982;7.032;2022-07-24T16:07:50;32.19;31.30